Hlavní strana
METAR-TAF:

METAR-TAF

Letiště :

Hickory, Severní Karolína, Spojené státy americké

zeměpisná šířka: 35-44-32N, zeměpisná délka: 081-22-56W, výška: 362 m

Aktuální stav počasí

Zpráva byla vytvořena před 55 minutami, v 06:53 UTC
Východoseverovýchodní vítr 5 kt
Teplota 6°C
Vlhkost vzduchu 65%
Tlak 1029 hPa
Viditelnost: 16.1 km
Zataženo ve výšce 4500 ft

METAR: KHKY 080653Z AUTO 07005KT 10SM OVC045 06/00 A3039 RMK AO2 SLP283 T00560000

Čas: 02:48 (07:48 UTC)

Předpověď počasí

Zpráva byla vytvořena před 2 hodinami a 14 minutami, v 05:34 UTC
Předpověď platná od 08 v 06 UTC do 09 v 06 UTC
Východoseverovýchodní vítr 5 kt
Viditelnost: 10 km
Zataženo ve výšce 4500 ft
Od 08 v 1700 UTC
Východoseverovýchodní vítr 3 kt
Viditelnost: 10 km
Polojasno ve výšce 4500 ft
Polojasno ve výšce 25000 ft
Od 09 v 0200 UTC
vítr z různých směrů 2 kt
Viditelnost: 10 km
Oblačno až skoro zataženo ve výšce 5000 ft

TAF: KHKY 080534Z 0806/0906 06005KT P6SM OVC045 FM081700 07003KT P6SM SCT045 SCT250 FM090200 VRB02KT P6SM BKN050

Stav a předpovědi počasí z více než 4 000 letišť (zprávy METAR a TAF).

Červené a žluté tečky na mapě představují dostupné meteorologické stanice.

Když kurzor umístíte na tečku, zobrazí se název stanice.

Pak kliknutím zobrazíte stav a předpověď počasí.

Chcete-li změnit mapu, kliknutím na zelené tlačítko se znaménkem +mapu přiblížíte, kliknutím na zelené tlačítko se znaménkem – mapu oddálíte a kliknutím na zelené šipky přejdete na sousední mapy.


METAR-TAF: